Monsun — LG3433 — position and weather

sailwx.info

Track history (hours):
 
Tides and Currents Weather Stations Pressure Air Temp Water Temp Dewpoint Dewpoint Depression Visibility Wind Speed Wind Dir Waves Ship Positions

Monsun

Last reported at 2017-Aug-17 13:52 UTC. Time now 2017-Aug-19 18:51 UTC.
Position N 69°29' E 017°41'.

Length 10 m.

Type: Fishing. MMSI: 257005610.

Date/timePositionNaut miles runAvg speedWind from/ knotsBaromVisibWave heightAir tempDewpointWater temp
2017-Aug-17 13:52N 69°29' E 017°41'0 0.0
2017-Aug-17 03:03N 69°29' E 017°41'0 0.0
2017-Aug-17 03:00N 69°29' E 017°41'0 0.0
2017-Aug-17 01:27N 69°29' E 017°41'0 0.0
2017-Aug-17 00:39N 69°29' E 017°41'0 0.0
2017-Aug-17 00:21N 69°29' E 017°41'0 0.0
2017-Aug-16 23:57N 69°29' E 017°41'0 0.0
2017-Aug-15 11:07N 69°29' E 017°41'0 0.0
2017-Aug-15 10:58N 69°29' E 017°41'0 0.0
2017-Aug-15 10:22N 69°29' E 017°41'0 0.0
2017-Aug-15 09:52N 69°29' E 017°41'0 0.0
2017-Aug-15 09:22N 69°29' E 017°41'0 0.0
2017-Aug-15 00:56N 69°29' E 017°41'0 0.0
2017-Aug-15 00:23N 69°29' E 017°41'0 0.0
2017-Aug-14 23:59N 69°29' E 017°41'0 0.0
2017-Aug-14 23:26N 69°29' E 017°41'0 0.0
2017-Aug-14 22:53N 69°29' E 017°41'0 0.0
2017-Aug-14 22:29N 69°29' E 017°41'0 0.0
2017-Aug-14 19:23N 69°29' E 017°41'0 0.0
2017-Aug-14 18:50N 69°29' E 017°41'0 0.0
2017-Aug-14 17:53N 69°29' E 017°41'0 0.0
2017-Aug-14 17:26N 69°29' E 017°41'0 0.0
2017-Aug-14 12:17N 69°29' E 017°41'0 0.0
2017-Aug-14 11:59N 69°29' E 017°41'0 0.0
2017-Aug-14 11:17N 69°29' E 017°41'0 0.0
2017-Aug-14 10:44N 69°29' E 017°41'0 0.0
2017-Aug-14 10:29N 69°29' E 017°41'0 0.0
2017-Aug-13 15:26N 69°29' E 017°40'2 4.1
2017-Aug-13 14:59N 69°31' E 017°39'0 0.1
2017-Aug-13 14:28N 69°31' E 017°39'0 0.1
2017-Aug-13 13:59N 69°31' E 017°39'1 1.3
2017-Aug-13 13:29N 69°32' E 017°38'3 5.3
2017-Aug-13 12:58N 69°34' E 017°36'2 4.2
2017-Aug-13 12:30N 69°33' E 017°38'3 0.2
2017-Aug-12 22:22N 69°29' E 017°41'0 0.0
2017-Aug-12 20:52N 69°29' E 017°41'0 0.0
2017-Aug-12 08:39N 69°29' E 017°41'0 0.0
2017-Aug-12 08:24N 69°29' E 017°41'0 0.0
2017-Aug-11 20:18N 69°29' E 017°41'0 0.0
2017-Aug-11 19:54N 69°29' E 017°41'  
2017-Aug-09 08:42N 69°29' E 017°41'0 0.0
2017-Aug-09 08:30N 69°29' E 017°41'0 0.0
2017-Aug-09 06:30N 69°29' E 017°41'0 0.0
2017-Aug-09 06:00N 69°29' E 017°41'0 0.0
2017-Aug-08 16:04N 69°29' E 017°41'0 0.0
2017-Aug-08 15:58N 69°29' E 017°41'0 0.0
2017-Aug-08 15:04N 69°29' E 017°41'  
Track history (hours):
 
Tides and Currents Weather Stations Pressure Air Temp Water Temp Dewpoint Dewpoint Depression Visibility Wind Speed Wind Dir Waves Ship Positions

Monsun

Last reported at 2017-Aug-17 13:52 UTC. Time now 2017-Aug-19 18:51 UTC.
Position N 69°29' E 017°41'.

Length 10 m.

Type: Fishing. MMSI: 257005610.

Date/timePositionNaut miles runAvg speedWind from/ knotsBaromVisibWave heightAir tempDewpointWater temp
2017-Aug-17 13:52N 69°29' E 017°41'0 0.0
2017-Aug-17 03:03N 69°29' E 017°41'0 0.0
2017-Aug-17 03:00N 69°29' E 017°41'0 0.0
2017-Aug-17 01:27N 69°29' E 017°41'0 0.0
2017-Aug-17 00:39N 69°29' E 017°41'0 0.0
2017-Aug-17 00:21N 69°29' E 017°41'0 0.0
2017-Aug-16 23:57N 69°29' E 017°41'0 0.0
2017-Aug-15 11:07N 69°29' E 017°41'0 0.0
2017-Aug-15 10:58N 69°29' E 017°41'0 0.0
2017-Aug-15 10:22N 69°29' E 017°41'0 0.0
2017-Aug-15 09:52N 69°29' E 017°41'0 0.0
2017-Aug-15 09:22N 69°29' E 017°41'0 0.0
2017-Aug-15 00:56N 69°29' E 017°41'0 0.0
2017-Aug-15 00:23N 69°29' E 017°41'0 0.0
2017-Aug-14 23:59N 69°29' E 017°41'0 0.0
2017-Aug-14 23:26N 69°29' E 017°41'0 0.0
2017-Aug-14 22:53N 69°29' E 017°41'0 0.0
2017-Aug-14 22:29N 69°29' E 017°41'0 0.0
2017-Aug-14 19:23N 69°29' E 017°41'0 0.0
2017-Aug-14 18:50N 69°29' E 017°41'0 0.0
2017-Aug-14 17:53N 69°29' E 017°41'0 0.0
2017-Aug-14 17:26N 69°29' E 017°41'0 0.0
2017-Aug-14 12:17N 69°29' E 017°41'0 0.0
2017-Aug-14 11:59N 69°29' E 017°41'0 0.0
2017-Aug-14 11:17N 69°29' E 017°41'0 0.0
2017-Aug-14 10:44N 69°29' E 017°41'0 0.0
2017-Aug-14 10:29N 69°29' E 017°41'0 0.0
2017-Aug-13 15:26N 69°29' E 017°40'2 4.1
2017-Aug-13 14:59N 69°31' E 017°39'0 0.1
2017-Aug-13 14:28N 69°31' E 017°39'0 0.1
2017-Aug-13 13:59N 69°31' E 017°39'1 1.3
2017-Aug-13 13:29N 69°32' E 017°38'3 5.3
2017-Aug-13 12:58N 69°34' E 017°36'2 4.2
2017-Aug-13 12:30N 69°33' E 017°38'3 0.2
2017-Aug-12 22:22N 69°29' E 017°41'0 0.0
2017-Aug-12 20:52N 69°29' E 017°41'0 0.0
2017-Aug-12 08:39N 69°29' E 017°41'0 0.0
2017-Aug-12 08:24N 69°29' E 017°41'0 0.0
2017-Aug-11 20:18N 69°29' E 017°41'0 0.0
2017-Aug-11 19:54N 69°29' E 017°41'  
2017-Aug-09 08:42N 69°29' E 017°41'0 0.0
2017-Aug-09 08:30N 69°29' E 017°41'0 0.0
2017-Aug-09 06:30N 69°29' E 017°41'0 0.0
2017-Aug-09 06:00N 69°29' E 017°41'0 0.0
2017-Aug-08 16:04N 69°29' E 017°41'0 0.0
2017-Aug-08 15:58N 69°29' E 017°41'0 0.0
2017-Aug-08 15:04N 69°29' E 017°41'  

Dump ship's entire track history